Aviation Digital Data Service (ADDS)

Output produced by TAFs form (0026 UTC 27 May 2017)
found at http://www.aviationweather.gov/adds/tafs/
 
METAR text: RJGG 270000Z 31012KT 9999 FEW030 19/10 Q1009 NOSIG
Conditions at: RJGG (NAGOYA/CHUBU , JP) observed 0000 UTC 27 May 2017
Temperature: 19.0°C (66°F)
Dewpoint: 10.0°C (50°F) [RH = 56%]
Pressure (altimeter): 29.79 inches Hg (1009.0 mb)
Winds: from the NW (310 degrees) at 14 MPH (12 knots; 6.2 m/s)
Visibility: 6 or more miles (10+ km)
Ceiling: at least 12,000 feet AGL
Clouds: few clouds at 3000 feet AGL
Weather: no significant weather observed at this time

Forecast for: RJGG (NAGOYA/CHUBU , JP)
Text: TAF RJGG 262310Z 2700/2806 32015KT 9999 FEW025 SCT040
Forecast period: 0000 UTC 27 May 2017 to 0600 UTC 28 May 2017
Forecast type: FROM: standard forecast or significant change
Winds: from the NW (320 degrees) at 17 MPH (15 knots; 7.8 m/s)
Visibility: 6 or more miles (10+ km)
Clouds: few clouds at 2500 feet AGL
scattered clouds at 4000 feet AGL
Weather: no significant weather forecast for this period